createdAt,value
2023-05-21T00:04:59.398Z,49.36
2023-05-21T00:10:03.057Z,49.04
2023-05-21T00:15:08.082Z,49.55
2023-05-21T00:20:13.226Z,49.73
2023-05-21T00:25:16.151Z,49.77
2023-05-21T00:30:18.625Z,49.85
2023-05-21T00:35:21.731Z,49.98
2023-05-21T00:40:24.666Z,50.41
2023-05-21T00:45:27.378Z,50.50
2023-05-21T00:50:32.243Z,50.59
2023-05-21T00:55:40.389Z,50.72
2023-05-21T01:00:43.464Z,50.81
2023-05-21T01:05:47.030Z,51.21
2023-05-21T01:10:50.440Z,51.51
2023-05-21T01:15:54.047Z,51.58
2023-05-21T01:20:56.859Z,52.05
2023-05-21T01:25:59.738Z,52.15
2023-05-21T01:31:19.038Z,52.12
2023-05-21T01:36:27.903Z,52.21
2023-05-21T01:41:37.333Z,52.69
2023-05-21T01:46:41.311Z,53.03
2023-05-21T01:51:45.592Z,52.97
2023-05-21T01:56:48.156Z,52.82
2023-05-21T02:01:51.467Z,52.71
2023-05-21T02:06:55.059Z,53.11
2023-05-21T02:11:58.479Z,53.53
2023-05-21T02:17:01.358Z,53.42
2023-05-21T02:22:04.430Z,52.74
2023-05-21T02:27:07.388Z,53.03
2023-05-21T02:32:11.971Z,53.31
2023-05-21T02:37:14.999Z,52.65
2023-05-21T02:42:17.783Z,52.15
2023-05-21T02:47:20.811Z,51.36
2023-05-21T02:52:24.148Z,51.41
2023-05-21T02:57:28.345Z,50.45
2023-05-21T03:02:32.161Z,49.33
2023-05-21T03:07:34.645Z,48.02
2023-05-21T03:12:38.746Z,46.73
2023-05-21T03:17:42.580Z,44.99
2023-05-21T03:22:46.029Z,44.30
2023-05-21T03:27:48.631Z,42.83
2023-05-21T03:33:15.140Z,42.51
2023-05-21T03:38:19.738Z,42.17
2023-05-21T03:43:22.612Z,42.34
2023-05-21T03:48:27.239Z,42.80
2023-05-21T03:53:30.404Z,42.82
2023-05-21T03:58:33.133Z,42.98
2023-05-21T04:03:37.840Z,43.39
2023-05-21T04:08:43.489Z,44.10
2023-05-21T04:13:46.336Z,44.24
2023-05-21T04:18:49.874Z,44.90
2023-05-21T04:23:54.569Z,45.10
2023-05-21T04:29:05.718Z,45.57
2023-05-21T04:34:08.142Z,45.35
2023-05-21T04:39:10.681Z,45.29
2023-05-21T04:44:15.323Z,45.00
2023-05-21T04:49:21.901Z,45.21
2023-05-21T04:54:24.838Z,44.65
2023-05-21T04:59:27.325Z,44.30
2023-05-21T05:04:29.904Z,44.38
2023-05-21T05:09:32.562Z,44.42
2023-05-21T05:14:36.538Z,42.97
2023-05-21T05:19:40.026Z,42.87
2023-05-21T05:24:43.588Z,42.87
2023-05-21T05:29:46.578Z,43.17
2023-05-21T05:34:50.089Z,42.78
2023-05-21T05:39:53.225Z,41.88
2023-05-21T05:44:57.127Z,40.97
2023-05-21T05:50:00.744Z,40.71
2023-05-21T05:55:09.120Z,40.22
2023-05-21T06:00:14.400Z,40.27
2023-05-21T06:05:20.739Z,40.65
2023-05-21T06:10:27.068Z,40.26
2023-05-21T06:15:30.766Z,40.35
2023-05-21T06:20:33.933Z,40.28
2023-05-21T06:25:36.849Z,40.26
2023-05-21T06:30:42.792Z,39.45
2023-05-21T06:35:45.760Z,38.51
2023-05-21T06:40:48.825Z,37.99
2023-05-21T06:46:05.245Z,37.67
2023-05-21T06:51:16.216Z,36.90
2023-05-21T06:56:19.495Z,36.28
2023-05-21T07:01:23.899Z,36.37
2023-05-21T07:06:26.898Z,36.40
2023-05-21T07:11:31.206Z,36.17
2023-05-21T07:16:35.053Z,35.53
2023-05-21T07:21:38.218Z,34.60
2023-05-21T07:26:42.799Z,34.70
2023-05-21T07:31:46.577Z,34.58
2023-05-21T07:36:49.176Z,34.88
2023-05-21T07:41:52.117Z,34.48
2023-05-21T07:46:56.356Z,33.75
2023-05-21T07:51:59.279Z,33.28
2023-05-21T07:57:03.797Z,32.32
2023-05-21T08:02:30.614Z,32.00
2023-05-21T08:07:33.964Z,32.43
2023-05-21T08:12:36.611Z,32.44
2023-05-21T08:17:41.347Z,32.29
2023-05-21T08:22:45.098Z,32.59
2023-05-21T08:27:49.460Z,32.85
2023-05-21T08:32:54.367Z,33.46
2023-05-21T08:37:58.945Z,33.09
2023-05-21T08:43:15.326Z,32.29
2023-05-21T08:48:23.860Z,32.73
2023-05-21T08:53:29.896Z,31.63
2023-05-21T08:58:34.834Z,32.55
2023-05-21T09:03:40.780Z,32.18
2023-05-21T09:08:50.756Z,31.34
2023-05-21T09:14:11.693Z,31.69
2023-05-21T09:19:30.962Z,31.58
2023-05-21T09:24:36.337Z,32.16
2023-05-21T09:29:42.600Z,31.05
2023-05-21T09:34:44.955Z,30.96
2023-05-21T09:39:49.339Z,31.57
2023-05-21T09:44:53.358Z,31.55
2023-05-21T09:49:58.983Z,31.54
2023-05-21T09:55:02.170Z,31.53
2023-05-21T10:00:09.176Z,31.75
2023-05-21T10:05:17.919Z,32.01
2023-05-21T10:10:23.385Z,32.32
2023-05-21T10:15:28.751Z,32.28
2023-05-21T10:20:32.170Z,32.22
2023-05-21T10:25:36.377Z,32.47
2023-05-21T10:30:40.091Z,32.76
2023-05-21T10:35:43.560Z,32.74
2023-05-21T10:40:47.333Z,32.37
2023-05-21T10:46:09.556Z,31.37
2023-05-21T10:51:29.601Z,31.52
2023-05-21T10:56:44.379Z,31.34
2023-05-21T11:01:47.657Z,31.54
2023-05-21T11:06:50.188Z,31.78
2023-05-21T11:11:58.798Z,31.96
2023-05-21T11:17:03.319Z,32.03
2023-05-21T11:22:07.123Z,31.40
2023-05-21T11:27:10.798Z,31.87
2023-05-21T11:32:16.156Z,31.44
2023-05-21T11:37:25.252Z,31.38
2023-05-21T11:42:32.988Z,32.35
2023-05-21T11:47:36.708Z,31.83
2023-05-21T11:52:40.893Z,32.23
2023-05-21T11:57:45.178Z,32.18
2023-05-21T12:02:51.903Z,32.06
2023-05-21T12:07:56.374Z,31.30
2023-05-21T12:13:00.209Z,31.71
2023-05-21T12:18:02.483Z,32.11
2023-05-21T12:23:05.399Z,32.15
2023-05-21T12:28:09.096Z,32.29
2023-05-21T12:33:12.947Z,32.45
2023-05-21T12:38:16.655Z,32.24
2023-05-21T12:43:19.512Z,30.74
2023-05-21T12:48:22.844Z,31.30
2023-05-21T12:53:25.858Z,31.58
2023-05-21T12:58:28.677Z,30.70
2023-05-21T13:03:32.798Z,31.31
2023-05-21T13:08:35.642Z,32.13
2023-05-21T13:13:38.841Z,31.55
2023-05-21T13:18:41.382Z,30.42
2023-05-21T13:23:44.897Z,29.34
2023-05-21T13:28:48.389Z,28.94
2023-05-21T13:33:51.851Z,29.59
2023-05-21T13:38:57.200Z,29.87
2023-05-21T13:44:00.208Z,29.94
2023-05-21T13:49:04.282Z,30.17
2023-05-21T13:54:06.972Z,30.50
2023-05-21T13:59:09.860Z,30.26
2023-05-21T14:04:13.539Z,29.93
2023-05-21T14:09:16.432Z,30.58
2023-05-21T14:14:19.512Z,31.17
2023-05-21T14:19:24.194Z,31.48
2023-05-21T14:24:26.671Z,31.72
2023-05-21T14:29:29.645Z,32.22
2023-05-21T14:34:32.123Z,32.42
2023-05-21T14:39:35.165Z,32.48
2023-05-21T14:44:37.585Z,32.49
2023-05-21T14:49:40.661Z,32.64
2023-05-21T14:54:44.082Z,33.29
2023-05-21T14:59:47.026Z,33.27
2023-05-21T15:04:49.423Z,33.33
2023-05-21T15:09:52.393Z,33.14
2023-05-21T15:14:54.705Z,33.70
2023-05-21T15:19:59.061Z,34.11
2023-05-21T15:25:02.529Z,34.42
2023-05-21T15:30:07.843Z,34.86
2023-05-21T15:35:10.603Z,34.71
2023-05-21T15:40:15.185Z,35.35
2023-05-21T15:45:18.117Z,35.38
2023-05-21T15:50:21.313Z,35.67
2023-05-21T15:55:23.738Z,35.74
2023-05-21T16:00:26.151Z,35.35
2023-05-21T16:05:29.459Z,36.24
2023-05-21T16:10:31.895Z,36.32
2023-05-21T16:15:34.614Z,36.59
2023-05-21T16:20:37.206Z,36.54
2023-05-21T16:25:41.053Z,36.45
2023-05-21T16:30:44.056Z,37.00
2023-05-21T16:35:46.930Z,37.61
2023-05-21T16:40:50.633Z,37.71
2023-05-21T16:45:54.225Z,37.89
2023-05-21T16:50:57.190Z,37.90
2023-05-21T16:56:00.129Z,38.59
2023-05-21T17:01:04.135Z,38.49
2023-05-21T17:06:07.858Z,38.68
2023-05-21T17:11:11.042Z,39.00
2023-05-21T17:16:13.777Z,38.62
2023-05-21T17:21:16.220Z,39.08
2023-05-21T17:26:19.341Z,39.59
2023-05-21T17:31:22.473Z,39.91
2023-05-21T17:36:25.341Z,40.15
2023-05-21T17:41:27.798Z,40.06
2023-05-21T17:46:30.764Z,40.71
2023-05-21T17:51:33.520Z,40.84
2023-05-21T17:56:39.628Z,40.49
2023-05-21T18:01:42.302Z,40.80
2023-05-21T18:06:45.922Z,41.19
2023-05-21T18:11:48.391Z,41.11
2023-05-21T18:16:50.905Z,40.43
2023-05-21T18:21:53.395Z,39.19
2023-05-21T18:26:56.450Z,36.78
2023-05-21T18:31:58.918Z,34.21
2023-05-21T18:37:01.375Z,33.98
2023-05-21T18:42:12.849Z,33.69
2023-05-21T18:47:15.879Z,33.79
2023-05-21T18:52:18.422Z,33.39
2023-05-21T18:57:21.410Z,33.20
2023-05-21T19:02:24.696Z,33.27
2023-05-21T19:07:27.138Z,32.98
2023-05-21T19:12:31.689Z,32.98
2023-05-21T19:17:36.442Z,32.67
2023-05-21T19:22:40.161Z,32.84
2023-05-21T19:27:42.739Z,33.05
2023-05-21T19:32:46.393Z,32.95
2023-05-21T19:37:48.869Z,33.21
2023-05-21T19:42:51.265Z,33.31
2023-05-21T19:47:54.532Z,33.74
2023-05-21T19:52:58.728Z,33.87
2023-05-21T19:58:01.853Z,34.42
2023-05-21T20:03:04.600Z,35.00
2023-05-21T20:08:07.017Z,35.41
2023-05-21T20:13:10.671Z,35.79
2023-05-21T20:18:13.214Z,35.72
2023-05-21T20:23:16.743Z,36.43
2023-05-21T20:28:21.175Z,36.25
2023-05-21T20:33:27.556Z,36.71
2023-05-21T20:38:33.385Z,36.58
2023-05-21T20:43:37.585Z,37.01
2023-05-21T20:48:41.954Z,36.82
2023-05-21T20:53:46.705Z,37.11
2023-05-21T20:58:49.064Z,37.16
2023-05-21T21:03:51.863Z,37.49
2023-05-21T21:08:55.801Z,37.64
2023-05-21T21:14:00.270Z,37.64
2023-05-21T21:19:03.313Z,37.51
2023-05-21T21:24:06.605Z,37.21
2023-05-21T21:29:08.983Z,36.88
2023-05-21T21:34:11.559Z,36.81
2023-05-21T21:39:14.144Z,36.99
2023-05-21T21:44:16.590Z,37.11
2023-05-21T21:49:19.148Z,37.01
2023-05-21T21:54:21.496Z,37.29
2023-05-21T21:59:24.498Z,37.54
2023-05-21T22:04:27.527Z,37.67
2023-05-21T22:09:30.094Z,38.33
2023-05-21T22:14:32.451Z,38.57
2023-05-21T22:19:36.136Z,38.66
2023-05-21T22:24:39.536Z,39.01
2023-05-21T22:29:42.095Z,39.18
2023-05-21T22:34:44.678Z,38.76
2023-05-21T22:39:47.669Z,38.41
2023-05-21T22:44:50.845Z,38.50
2023-05-21T22:49:54.068Z,38.47
2023-05-21T22:54:58.113Z,38.44
2023-05-21T23:00:00.556Z,38.91
2023-05-21T23:05:02.962Z,39.04
2023-05-21T23:10:06.939Z,39.72
2023-05-21T23:15:11.015Z,41.12
2023-05-21T23:20:13.562Z,42.18
2023-05-21T23:25:17.677Z,43.14
2023-05-21T23:30:20.676Z,43.91
2023-05-21T23:35:24.830Z,44.99
2023-05-21T23:40:27.720Z,46.05
2023-05-21T23:45:32.310Z,46.71
2023-05-21T23:50:35.334Z,47.11
2023-05-21T23:55:38.340Z,47.73
